Time;durP1;ratioP1;P1;durP2;ratioP2;P2;SDS_P1;SDS_P2;PMS_P1;PMS_P2;Temp;Humidity;BMP_temperature;BMP_pressure;BME280_temperature;BME280_humidity;BME280_pressure;Samples;Min_cycle;Max_cycle;Signal;HPM_P1;HPM_P2
2023/06/17 00:00:57;;;;;;;;;;;;;;;20.09;57.93;99945.31;5402332;32;34126;-76
2023/06/17 00:03:59;;;;;;;;;;;;;;;19.77;60.22;99936.53;5379503;32;35230;-67
2023/06/17 00:07:02;;;;;;;;;;;;;;;19.65;60.18;99933.09;5408233;32;35557;-67
2023/06/17 00:10:04;;;;;;;;;;;;;;;20.22;58.31;99937.97;5389832;32;34332;-76
2023/06/17 00:13:07;;;;;;;;;;;;;;;19.70;58.71;99934.38;5408420;32;35548;-76
2023/06/17 00:16:12;;;;;;;;;;;;;;;19.20;60.17;99933.25;5391471;32;34548;-74
2023/06/17 00:19:17;;;;;;;;;;;;;;;19.06;59.78;99928.19;5405210;32;34426;-74
2023/06/17 00:22:19;;;;;;;;;;;;;;;20.28;56.13;99913.41;5406296;32;36477;-76
2023/06/17 00:25:21;;;;;;;;;;;;;;;19.99;56.42;99913.25;5398871;32;34929;-67
2023/06/17 00:28:23;;;;;;;;;;;;;;;19.46;57.79;99917.78;5408150;32;34357;-75
2023/06/17 00:31:25;;;;;;;;;;;;;;;18.85;59.31;99920.97;5402137;32;34894;-77
2023/06/17 00:34:27;;;;;;;;;;;;;;;19.30;57.84;99912.00;5381806;32;35285;-68
2023/06/17 00:37:29;;;;;;;;;;;;;;;19.03;59.15;99905.31;5402147;32;35232;-69
2023/06/17 00:40:31;;;;;;;;;;;;;;;19.04;58.54;99911.50;5389364;32;35530;-76
2023/06/17 00:43:33;;;;;;;;;;;;;;;19.35;57.33;99909.81;5399581;32;35383;-77
2023/06/17 00:46:36;;;;;;;;;;;;;;;19.33;57.07;99915.28;5380515;32;34595;-75
2023/06/17 00:49:41;;;;;;;;;;;;;;;19.84;53.83;99900.41;5408009;32;35388;-68
2023/06/17 00:52:44;;;;;;;;;;;;;;;19.76;53.25;99901.03;5401682;32;36137;-69
2023/06/17 00:55:46;;;;;;;;;;;;;;;18.71;56.46;99915.91;5393613;32;35801;-68
2023/06/17 00:58:49;;;;;;;;;;;;;;;19.04;55.53;99907.00;5401911;32;36610;-69
2023/06/17 01:01:51;;;;;;;;;;;;;;;18.62;56.77;99898.00;5404305;32;35017;-76
2023/06/17 01:04:53;;;;;;;;;;;;;;;17.99;58.83;99907.44;5408928;32;35634;-70
2023/06/17 01:07:57;;;;;;;;;;;;;;;18.21;58.27;99907.44;5405339;32;35113;-69
2023/06/17 01:11:00;;;;;;;;;;;;;;;18.29;58.19;99896.19;5410401;32;34875;-68
2023/06/17 01:14:01;;;;;;;;;;;;;;;19.04;55.97;99891.03;5405109;32;35397;-76
2023/06/17 01:17:03;;;;;;;;;;;;;;;19.42;54.93;99890.53;5409010;32;35202;-68
2023/06/17 01:20:07;;;;;;;;;;;;;;;19.04;55.35;99896.34;5405504;32;35017;-75
2023/06/17 01:23:10;;;;;;;;;;;;;;;18.51;57.19;99901.53;5404658;32;35861;-74
2023/06/17 01:26:13;;;;;;;;;;;;;;;18.38;57.56;99893.66;5395754;32;34746;-67
2023/06/17 01:29:16;;;;;;;;;;;;;;;18.58;57.25;99899.22;5405426;32;34654;-68
2023/06/17 01:32:18;;;;;;;;;;;;;;;19.05;55.63;99891.88;5408512;32;35548;-68
2023/06/17 01:35:20;;;;;;;;;;;;;;;18.85;55.86;99897.00;5406425;32;35389;-68
2023/06/17 01:38:23;;;;;;;;;;;;;;;18.77;56.55;99904.78;5403588;32;34264;-75
2023/06/17 01:41:41;;;;;;;;;;;;;;;19.13;55.08;99906.28;5399861;32;35520;-74
2023/06/17 01:44:43;;;;;;;;;;;;;;;19.65;53.03;99904.63;5403394;32;34284;-67
2023/06/17 01:47:45;;;;;;;;;;;;;;;19.39;53.35;99898.78;5407292;32;35389;-75
2023/06/17 01:50:47;;;;;;;;;;;;;;;19.38;53.37;99899.72;5391780;32;35027;-68
2023/06/17 01:53:50;;;;;;;;;;;;;;;18.81;54.61;99902.72;5409834;32;35905;-75
2023/06/17 01:56:52;;;;;;;;;;;;;;;18.87;54.66;99903.09;5405739;32;34714;-69
2023/06/17 01:59:54;;;;;;;;;;;;;;;18.25;56.25;99903.59;5407230;32;34459;-69
2023/06/17 02:02:56;;;;;;;;;;;;;;;17.97;57.28;99909.34;5405478;32;34382;-67
2023/06/17 02:05:58;;;;;;;;;;;;;;;18.77;55.04;99898.62;5404885;32;35469;-74
2023/06/17 02:09:00;;;;;;;;;;;;;;;17.71;57.65;99896.28;5407333;32;35652;-68
2023/06/17 02:12:05;;;;;;;;;;;;;;;18.15;56.75;99897.28;5405274;32;35329;-68
2023/06/17 02:15:07;;;;;;;;;;;;;;;18.75;54.63;99892.56;5396321;32;35091;-68
2023/06/17 02:18:10;;;;;;;;;;;;;;;18.75;54.68;99896.09;5403671;32;34668;-68
2023/06/17 02:21:12;;;;;;;;;;;;;;;19.17;53.40;99896.19;5405105;32;34693;-69
2023/06/17 02:24:14;;;;;;;;;;;;;;;19.11;53.45;99899.38;5381547;32;35469;-67
2023/06/17 02:27:16;;;;;;;;;;;;;;;17.32;58.36;99903.59;5400820;32;34792;-67
2023/06/17 02:30:18;;;;;;;;;;;;;;;18.45;55.62;99898.50;5409895;32;34454;-76
2023/06/17 02:33:22;;;;;;;;;;;;;;;18.13;56.31;99899.22;5389846;32;34216;-68
2023/06/17 02:36:25;;;;;;;;;;;;;;;18.37;55.65;99899.12;5408072;32;35341;-72
2023/06/17 02:39:27;;;;;;;;;;;;;;;18.71;54.52;99901.78;5386441;32;34640;-75
2023/06/17 02:42:29;;;;;;;;;;;;;;;18.04;56.57;99897.28;5403847;32;34992;-75
2023/06/17 02:45:31;;;;;;;;;;;;;;;18.01;56.40;99908.16;5405906;32;34985;-68
2023/06/17 02:48:32;;;;;;;;;;;;;;;18.52;55.25;99911.19;5403864;32;34768;-69
2023/06/17 02:51:34;;;;;;;;;;;;;;;17.81;57.17;99909.69;5409346;32;35566;-69
2023/06/17 02:54:36;;;;;;;;;;;;;;;18.10;56.42;99904.78;5405114;32;35659;-75
2023/06/17 02:57:41;;;;;;;;;;;;;;;18.17;56.15;99911.31;5408991;32;34930;-74
2023/06/17 03:00:43;;;;;;;;;;;;;;;18.50;55.26;99906.97;5404723;32;34776;-67
2023/06/17 03:03:45;;;;;;;;;;;;;;;18.17;56.20;99906.00;5403470;32;35097;-68
2023/06/17 03:06:50;;;;;;;;;;;;;;;18.08;56.47;99912.03;5408585;32;35721;-68
2023/06/17 03:09:52;;;;;;;;;;;;;;;17.84;56.90;99906.81;5399277;32;34875;-67
2023/06/17 03:12:55;;;;;;;;;;;;;;;17.86;57.23;99913.69;5407179;32;34804;-76
2023/06/17 03:15:58;;;;;;;;;;;;;;;17.68;57.69;99912.41;5407141;32;34922;-75
2023/06/17 03:19:00;;;;;;;;;;;;;;;17.84;57.20;99914.78;5409157;32;34611;-67
2023/06/17 03:22:02;;;;;;;;;;;;;;;17.87;57.28;99922.50;5401844;32;34530;-68
2023/06/17 03:25:05;;;;;;;;;;;;;;;18.70;55.03;99921.38;5399769;32;34411;-79
2023/06/17 03:28:07;;;;;;;;;;;;;;;18.87;54.11;99916.41;5408322;32;34779;-67
2023/06/17 03:31:10;;;;;;;;;;;;;;;19.26;52.58;99918.59;5405142;32;35642;-69
2023/06/17 03:34:12;;;;;;;;;;;;;;;18.56;54.86;99923.28;5408671;32;34251;-69
2023/06/17 03:37:14;;;;;;;;;;;;;;;18.03;56.63;99930.13;5408095;32;35594;-75
2023/06/17 03:40:16;;;;;;;;;;;;;;;18.52;55.70;99926.31;5406190;32;35485;-67
2023/06/17 03:43:18;;;;;;;;;;;;;;;19.30;52.89;99933.31;5400782;32;34063;-69
2023/06/17 03:46:20;;;;;;;;;;;;;;;19.52;52.41;99935.91;5392456;32;34324;-68
2023/06/17 03:49:22;;;;;;;;;;;;;;;18.76;53.98;99944.84;5404991;32;35076;-68
2023/06/17 03:52:24;;;;;;;;;;;;;;;19.19;52.80;99936.88;5403689;32;35056;-67
2023/06/17 03:55:27;;;;;;;;;;;;;;;18.79;54.17;99937.44;5409316;32;35559;-69
2023/06/17 03:58:29;;;;;;;;;;;;;;;19.54;52.18;99941.13;5404483;32;34751;-68
2023/06/17 04:01:31;;;;;;;;;;;;;;;19.77;51.50;99936.53;5408570;32;35261;-76
2023/06/17 04:04:34;;;;;;;;;;;;;;;20.06;50.69;99937.59;5403960;32;34670;-68
2023/06/17 04:07:38;;;;;;;;;;;;;;;19.88;50.45;99936.47;5403542;32;34353;-76
2023/06/17 04:10:40;;;;;;;;;;;;;;;19.94;50.96;99934.13;5408853;32;34782;-77
2023/06/17 04:13:42;;;;;;;;;;;;;;;19.60;51.51;99944.16;5403890;32;34822;-76
2023/06/17 04:16:44;;;;;;;;;;;;;;;19.03;52.75;99945.28;5410517;32;34178;-75
2023/06/17 04:19:47;;;;;;;;;;;;;;;18.58;54.45;99955.09;5404250;32;34702;-75
2023/06/17 04:22:49;;;;;;;;;;;;;;;19.79;51.16;99947.94;5407952;32;35666;-76
2023/06/17 04:25:51;;;;;;;;;;;;;;;19.46;52.46;99945.28;5403490;32;34389;-68
2023/06/17 04:28:53;;;;;;;;;;;;;;;19.39;52.79;99948.56;5377929;32;33216;-73
2023/06/17 04:31:56;;;;;;;;;;;;;;;19.44;52.19;99952.53;5408572;32;34981;-68
2023/06/17 04:34:58;;;;;;;;;;;;;;;20.16;50.41;99943.84;5389822;32;34951;-73
2023/06/17 04:38:02;;;;;;;;;;;;;;;19.80;51.44;99952.28;5409571;32;34998;-74
2023/06/17 04:41:05;;;;;;;;;;;;;;;19.58;52.05;99948.78;5399587;32;34293;-70
2023/06/17 04:44:08;;;;;;;;;;;;;;;19.53;51.81;99963.41;5403715;32;35531;-69
2023/06/17 04:47:11;;;;;;;;;;;;;;;20.18;50.52;99957.03;5400722;32;37180;-75
2023/06/17 04:50:17;;;;;;;;;;;;;;;19.72;51.66;99953.78;5403357;32;34634;-68
2023/06/17 04:53:20;;;;;;;;;;;;;;;19.96;51.04;99952.66;5405681;32;36241;-68
2023/06/17 04:56:21;;;;;;;;;;;;;;;20.95;48.19;99945.88;5403813;32;34554;-68
2023/06/17 04:59:24;;;;;;;;;;;;;;;20.89;48.22;99941.91;5393664;32;34758;-68
2023/06/17 05:02:26;;;;;;;;;;;;;;;20.41;49.11;99952.38;5399557;32;34925;-68
2023/06/17 05:05:28;;;;;;;;;;;;;;;21.19;47.30;99953.47;5405936;32;34730;-76
2023/06/17 05:08:30;;;;;;;;;;;;;;;21.74;46.42;99943.97;5405469;32;35094;-68
2023/06/17 05:11:32;;;;;;;;;;;;;;;23.21;42.54;99946.00;5403120;32;34802;-69
2023/06/17 05:14:34;;;;;;;;;;;;;;;23.31;41.55;99953.97;5406711;32;35102;-75
2023/06/17 05:17:36;;;;;;;;;;;;;;;23.05;42.78;99956.53;5404492;32;34928;-74
2023/06/17 05:20:38;;;;;;;;;;;;;;;23.07;42.17;99944.69;5381405;32;34696;-69
2023/06/17 05:23:40;;;;;;;;;;;;;;;23.26;41.83;99953.63;5398751;32;37043;-68
2023/06/17 05:26:42;;;;;;;;;;;;;;;22.08;44.71;99947.00;5398749;32;34679;-67
2023/06/17 05:29:44;;;;;;;;;;;;;;;23.64;41.39;99949.81;5391395;32;34239;-67
2023/06/17 05:32:46;;;;;;;;;;;;;;;23.63;41.15;99946.25;5403303;32;35797;-77
2023/06/17 05:35:48;;;;;;;;;;;;;;;23.57;40.95;99946.00;5392641;32;34673;-76
2023/06/17 05:38:50;;;;;;;;;;;;;;;24.23;39.15;99943.72;5404817;32;34180;-70
2023/06/17 05:41:52;;;;;;;;;;;;;;;24.24;39.35;99945.41;5390167;32;34570;-68
2023/06/17 05:44:54;;;;;;;;;;;;;;;24.35;39.12;99952.38;5396859;32;34852;-77
2023/06/17 05:47:56;;;;;;;;;;;;;;;24.24;38.97;99953.44;5404922;32;34219;-76
2023/06/17 05:50:58;;;;;;;;;;;;;;;25.02;37.39;99945.28;5406782;32;35325;-68
2023/06/17 05:54:00;;;;;;;;;;;;;;;24.84;38.32;99952.59;5404504;32;34894;-75
2023/06/17 05:57:02;;;;;;;;;;;;;;;23.95;40.22;99960.94;5403133;32;35004;-75
2023/06/17 06:00:04;;;;;;;;;;;;;;;24.61;38.42;99957.72;5405292;32;34429;-69
2023/06/17 06:03:06;;;;;;;;;;;;;;;23.83;40.34;99975.59;5409221;32;34233;-68
2023/06/17 06:06:08;;;;;;;;;;;;;;;24.28;39.82;99972.75;5390822;32;34441;-74
2023/06/17 06:09:10;;;;;;;;;;;;;;;24.49;39.13;99969.75;5393628;32;34439;-74
2023/06/17 06:12:12;;;;;;;;;;;;;;;24.08;40.66;99968.59;5408600;32;35254;-77
2023/06/17 06:15:14;;;;;;;;;;;;;;;24.82;38.07;99968.91;5406028;32;34893;-68
2023/06/17 06:18:16;;;;;;;;;;;;;;;24.16;39.89;99974.88;5409136;32;34827;-76
2023/06/17 06:21:18;;;;;;;;;;;;;;;25.92;36.33;99975.06;5404566;32;34951;-76
2023/06/17 06:24:20;;;;;;;;;;;;;;;25.97;36.17;99980.78;5408748;32;35427;-73
2023/06/17 06:27:22;;;;;;;;;;;;;;;25.50;36.78;99983.22;5405084;32;35074;-68
2023/06/17 06:30:25;;;;;;;;;;;;;;;25.04;37.45;99974.69;5403050;32;34869;-76
2023/06/17 06:33:26;;;;;;;;;;;;;;;24.51;38.98;99975.78;5408083;32;34996;-68
2023/06/17 06:36:28;;;;;;;;;;;;;;;26.00;35.92;99971.50;5405512;32;36005;-69
2023/06/17 06:39:30;;;;;;;;;;;;;;;26.00;36.09;99969.66;5390442;32;34515;-68
2023/06/17 06:42:32;;;;;;;;;;;;;;;25.90;36.23;99972.53;5375241;32;35069;-74
2023/06/17 06:45:34;;;;;;;;;;;;;;;25.29;37.35;99978.31;5395587;32;34772;-69
2023/06/17 06:48:37;;;;;;;;;;;;;;;25.25;37.34;99983.19;5390023;32;39287;-68
2023/06/17 06:51:39;;;;;;;;;;;;;;;24.38;38.98;99981.59;5404080;32;35091;-74
2023/06/17 06:54:40;;;;;;;;;;;;;;;25.36;37.56;99987.41;5402264;32;34906;-69
2023/06/17 06:57:42;;;;;;;;;;;;;;;24.40;39.43;99994.84;5402421;32;34625;-75
2023/06/17 07:00:44;;;;;;;;;;;;;;;24.59;39.22;99986.56;5406554;32;35982;-69
2023/06/17 07:03:46;;;;;;;;;;;;;;;25.26;38.20;99992.94;5404981;32;34807;-68
2023/06/17 07:06:48;;;;;;;;;;;;;;;25.72;37.46;99993.34;5381337;32;886327;-67
2023/06/17 07:09:50;;;;;;;;;;;;;;;25.46;37.50;100000.72;5404330;32;35364;-67
2023/06/17 07:12:52;;;;;;;;;;;;;;;25.69;37.11;99993.69;5404426;32;34938;-76
2023/06/17 07:15:54;;;;;;;;;;;;;;;25.66;37.71;99996.72;5407621;32;36744;-75
2023/06/17 07:18:56;;;;;;;;;;;;;;;25.67;37.94;99995.69;5401286;32;35068;-77
2023/06/17 07:21:58;;;;;;;;;;;;;;;25.21;38.61;99992.59;5408590;32;34407;-70
2023/06/17 07:25:00;;;;;;;;;;;;;;;25.64;37.35;99988.81;5390098;32;34650;-68
2023/06/17 07:28:03;;;;;;;;;;;;;;;26.19;36.57;99984.63;5408331;32;34766;-77
2023/06/17 07:31:05;;;;;;;;;;;;;;;25.78;37.62;99987.34;5391176;32;35845;-76
2023/06/17 07:34:07;;;;;;;;;;;;;;;27.66;34.10;99990.28;5390130;32;34882;-76
2023/06/17 07:37:09;;;;;;;;;;;;;;;27.22;34.55;99995.47;5409681;32;37053;-68
2023/06/17 07:40:11;;;;;;;;;;;;;;;26.82;35.54;99982.97;5398357;32;34677;-75
2023/06/17 07:43:18;;;;;;;;;;;;;;;26.84;35.30;99987.16;5405014;32;34034;-77
2023/06/17 07:46:20;;;;;;;;;;;;;;;27.24;34.47;99988.03;5392397;32;34973;-76
2023/06/17 07:49:22;;;;;;;;;;;;;;;26.55;35.33;99986.94;5406126;32;35096;-69
2023/06/17 07:52:24;;;;;;;;;;;;;;;26.52;36.28;99987.28;5403386;32;34494;-69
2023/06/17 07:55:28;;;;;;;;;;;;;;;26.86;35.24;99981.62;5401770;32;35286;-68
2023/06/17 07:58:31;;;;;;;;;;;;;;;28.15;33.13;99983.69;5407251;32;35278;-68
2023/06/17 08:01:33;;;;;;;;;;;;;;;28.38;32.45;99968.25;5404923;32;34353;-74
2023/06/17 08:04:35;;;;;;;;;;;;;;;28.77;31.82;99973.38;5408936;32;34911;-76
2023/06/17 08:07:37;;;;;;;;;;;;;;;28.38;32.40;99979.06;5403648;32;34485;-75
2023/06/17 08:10:39;;;;;;;;;;;;;;;29.13;31.08;99978.87;5394182;32;35378;-69
2023/06/17 08:13:41;;;;;;;;;;;;;;;29.05;30.45;99968.19;5388004;32;35024;-68
2023/06/17 08:16:43;;;;;;;;;;;;;;;28.30;31.84;99966.47;5403517;32;34399;-69
2023/06/17 08:19:46;;;;;;;;;;;;;;;29.73;28.83;99976.84;5399087;32;36011;-74
2023/06/17 08:22:47;;;;;;;;;;;;;;;27.23;33.35;99973.69;5403155;32;34421;-67
2023/06/17 08:25:49;;;;;;;;;;;;;;;28.42;30.73;99975.00;5407785;32;34324;-75
2023/06/17 08:28:51;;;;;;;;;;;;;;;26.60;34.08;99969.25;5403963;32;34878;-74
2023/06/17 08:31:53;;;;;;;;;;;;;;;27.24;33.37;99979.94;5407982;32;32940;-68
2023/06/17 08:34:55;;;;;;;;;;;;;;;28.83;30.73;99969.09;5390108;32;35346;-76
2023/06/17 08:37:57;;;;;;;;;;;;;;;27.33;32.41;99981.56;5406103;32;35567;-69
2023/06/17 08:40:59;;;;;;;;;;;;;;;28.53;30.46;99985.34;5391094;32;34955;-75
2023/06/17 08:44:01;;;;;;;;;;;;;;;26.89;33.47;99990.19;5397556;32;35635;-76
2023/06/17 08:47:03;;;;;;;;;;;;;;;26.67;34.49;99985.56;5400214;32;34723;-76
2023/06/17 08:50:05;;;;;;;;;;;;;;;26.89;34.33;99986.66;5373915;32;35033;-76
2023/06/17 08:53:07;;;;;;;;;;;;;;;27.63;32.65;99987.09;5405231;32;35353;-73
2023/06/17 08:56:09;;;;;;;;;;;;;;;26.98;34.22;99990.97;5403348;32;34518;-75
2023/06/17 08:59:11;;;;;;;;;;;;;;;27.40;33.70;99990.62;5400464;32;34978;-68
2023/06/17 09:02:14;;;;;;;;;;;;;;;27.51;33.52;99984.00;5399414;32;34788;-69
2023/06/17 09:05:16;;;;;;;;;;;;;;;26.95;35.09;99986.78;5389403;32;36100;-67
2023/06/17 09:08:18;;;;;;;;;;;;;;;28.73;32.51;99982.91;5404127;32;35769;-69
2023/06/17 09:11:21;;;;;;;;;;;;;;;27.44;34.29;99994.66;5402656;32;35087;-76
2023/06/17 09:14:25;;;;;;;;;;;;;;;27.87;32.94;99997.75;5405018;32;34337;-70
2023/06/17 09:17:27;;;;;;;;;;;;;;;28.13;33.03;99985.72;5388444;32;34152;-69
2023/06/17 09:20:31;;;;;;;;;;;;;;;28.33;32.69;99984.19;5390841;32;34542;-75
2023/06/17 09:23:33;;;;;;;;;;;;;;;29.52;30.29;99982.25;5394756;32;34770;-74
2023/06/17 09:26:38;;;;;;;;;;;;;;;28.67;31.06;99975.56;5399944;32;34862;-78
2023/06/17 09:29:40;;;;;;;;;;;;;;;29.34;30.54;99982.66;5409635;32;33540;-69
2023/06/17 09:32:42;;;;;;;;;;;;;;;29.78;29.64;99977.09;5403491;32;35428;-68
2023/06/17 09:35:46;;;;;;;;;;;;;;;28.11;32.36;99987.75;5392749;32;35679;-68
2023/06/17 09:38:52;;;;;;;;;;;;;;;29.49;30.17;99974.47;5392452;32;35516;-75
2023/06/17 09:41:54;;;;;;;;;;;;;;;30.26;29.87;99971.88;5402363;32;35187;-69
2023/06/17 09:44:56;;;;;;;;;;;;;;;27.87;33.09;99995.03;5381320;32;35759;-75
2023/06/17 09:47:58;;;;;;;;;;;;;;;28.72;31.69;99978.50;5402191;32;34648;-69
2023/06/17 09:51:05;;;;;;;;;;;;;;;28.62;31.52;99983.38;5409689;32;35402;-75
2023/06/17 09:54:08;;;;;;;;;;;;;;;28.89;31.63;99976.47;5403240;32;34665;-69
2023/06/17 09:57:13;;;;;;;;;;;;;;;29.68;29.49;99979.28;5399750;32;34087;-75
2023/06/17 10:00:15;;;;;;;;;;;;;;;28.23;31.64;99972.78;5409238;32;34799;-76
2023/06/17 10:03:17;;;;;;;;;;;;;;;28.66;31.08;99970.31;5405287;32;35053;-68
2023/06/17 10:06:19;;;;;;;;;;;;;;;29.54;29.69;99972.06;5410082;32;35314;-75
2023/06/17 10:09:22;;;;;;;;;;;;;;;28.11;32.58;99982.38;5400944;32;34946;-68
2023/06/17 10:12:24;;;;;;;;;;;;;;;28.41;32.18;99976.03;5409333;32;34885;-69
2023/06/17 10:15:26;;;;;;;;;;;;;;;30.54;28.88;99974.59;5407625;32;34759;-76
2023/06/17 10:18:28;;;;;;;;;;;;;;;28.93;29.77;99980.50;5402658;32;34746;-68
2023/06/17 10:21:30;;;;;;;;;;;;;;;27.97;31.17;99990.25;5396442;32;34909;-69
2023/06/17 10:24:32;;;;;;;;;;;;;;;29.05;30.33;99976.28;5401696;32;35579;-76
2023/06/17 10:27:34;;;;;;;;;;;;;;;29.41;30.16;99986.25;5409109;32;34906;-69
2023/06/17 10:30:39;;;;;;;;;;;;;;;28.56;31.24;99984.13;5403193;32;35172;-69
2023/06/17 10:33:45;;;;;;;;;;;;;;;28.86;31.15;99982.25;5383385;32;34849;-76
2023/06/17 10:36:53;;;;;;;;;;;;;;;30.07;29.51;99978.78;5406233;32;36190;-70
2023/06/17 10:39:56;;;;;;;;;;;;;;;28.67;30.25;99988.25;5401630;32;35612;-76
2023/06/17 10:43:00;;;;;;;;;;;;;;;28.39;30.51;99988.03;5390064;32;34744;-70
2023/06/17 10:46:02;;;;;;;;;;;;;;;30.32;28.32;99972.97;5404659;32;34961;-75
2023/06/17 10:49:04;;;;;;;;;;;;;;;29.84;29.19;99987.16;5409159;32;35160;-69
2023/06/17 10:52:11;;;;;;;;;;;;;;;30.71;27.73;99975.94;5392005;32;36527;-69
2023/06/17 10:55:13;;;;;;;;;;;;;;;30.68;26.96;99980.94;5393805;32;34682;-70
2023/06/17 10:58:15;;;;;;;;;;;;;;;29.55;28.15;99985.41;5405745;32;34494;-69
2023/06/17 11:01:17;;;;;;;;;;;;;;;30.06;27.89;99992.53;5406612;32;35226;-68
2023/06/17 11:04:19;;;;;;;;;;;;;;;29.31;29.34;99980.34;5409847;32;35251;-69
2023/06/17 11:07:25;;;;;;;;;;;;;;;31.18;27.06;99977.00;5405601;32;34858;-70
2023/06/17 11:10:27;;;;;;;;;;;;;;;31.64;26.52;99970.87;5408078;32;35001;-74
2023/06/17 11:13:29;;;;;;;;;;;;;;;30.06;27.44;99977.13;5402963;32;35139;-67
2023/06/17 11:16:32;;;;;;;;;;;;;;;30.52;26.93;99973.91;5409465;32;35000;-71
2023/06/17 11:19:34;;;;;;;;;;;;;;;28.86;29.72;99974.16;5407890;32;34892;-69
2023/06/17 11:22:37;;;;;;;;;;;;;;;29.85;28.43;99979.88;5405095;32;34314;-74
2023/06/17 11:25:40;;;;;;;;;;;;;;;29.41;27.74;99978.16;5409957;32;35391;-69
2023/06/17 11:28:47;;;;;;;;;;;;;;;29.19;29.27;99979.16;5405072;32;34607;-69
2023/06/17 11:31:49;;;;;;;;;;;;;;;30.34;27.56;99970.91;5394667;32;35052;-76
2023/06/17 11:34:51;;;;;;;;;;;;;;;29.97;28.60;99974.75;5404459;32;35673;-68
2023/06/17 11:37:54;;;;;;;;;;;;;;;31.66;26.36;99976.91;5390960;32;35339;-68
2023/06/17 11:40:57;;;;;;;;;;;;;;;30.99;28.26;99970.47;5405905;32;35084;-68
2023/06/17 11:43:59;;;;;;;;;;;;;;;30.70;27.49;99970.72;5375500;32;35062;-68
2023/06/17 11:47:02;;;;;;;;;;;;;;;30.03;28.35;99966.69;5406229;32;33730;-75
2023/06/17 11:50:05;;;;;;;;;;;;;;;29.63;28.86;99968.22;5404871;32;34387;-77
2023/06/17 11:53:07;;;;;;;;;;;;;;;30.31;28.88;99964.00;5408902;32;34938;-70
2023/06/17 11:56:10;;;;;;;;;;;;;;;30.82;27.86;99955.56;5404486;32;35058;-69
2023/06/17 11:59:12;;;;;;;;;;;;;;;30.56;28.16;99956.22;5377161;32;34539;-76
2023/06/17 12:02:15;;;;;;;;;;;;;;;30.62;27.64;99951.88;5408247;32;34212;-69
2023/06/17 12:05:17;;;;;;;;;;;;;;;29.28;29.57;99959.06;5400428;32;35220;-69
2023/06/17 12:08:19;;;;;;;;;;;;;;;27.63;31.51;99962.81;5407253;32;35427;-68
2023/06/17 12:11:23;;;;;;;;;;;;;;;27.48;31.80;99960.88;5404477;32;35040;-74
2023/06/17 12:14:24;;;;;;;;;;;;;;;28.09;30.98;99963.66;5407452;32;35130;-75
2023/06/17 12:17:26;;;;;;;;;;;;;;;27.72;31.67;99959.06;5404617;32;34634;-74
2023/06/17 12:20:28;;;;;;;;;;;;;;;27.72;32.12;99961.78;5403670;32;34809;-75
2023/06/17 12:23:30;;;;;;;;;;;;;;;27.24;33.38;99952.94;5407131;32;34869;-68
2023/06/17 12:26:32;;;;;;;;;;;;;;;27.80;31.99;99953.59;5389178;32;34659;-76
2023/06/17 12:29:34;;;;;;;;;;;;;;;26.84;33.27;99948.59;5407076;32;35059;-74
2023/06/17 12:32:37;;;;;;;;;;;;;;;27.84;31.65;99954.91;5403691;32;34874;-76
2023/06/17 12:35:39;;;;;;;;;;;;;;;27.75;32.16;99958.69;5409088;32;35033;-76
2023/06/17 12:38:41;;;;;;;;;;;;;;;26.79;33.23;99950.97;5402251;32;35063;-76
2023/06/17 12:41:43;;;;;;;;;;;;;;;27.44;32.75;99948.78;5398337;32;34756;-75
2023/06/17 12:44:46;;;;;;;;;;;;;;;26.61;33.57;99956.63;5405473;32;35133;-75
2023/06/17 12:47:48;;;;;;;;;;;;;;;27.16;33.01;99953.84;5403018;32;34813;-68
2023/06/17 12:50:50;;;;;;;;;;;;;;;26.34;33.70;99947.91;5407276;32;35666;-75
2023/06/17 12:53:52;;;;;;;;;;;;;;;26.58;33.61;99951.56;5401205;32;35566;-67
2023/06/17 12:56:55;;;;;;;;;;;;;;;26.57;33.53;99942.63;5406663;32;34231;-68
2023/06/17 12:59:57;;;;;;;;;;;;;;;26.53;33.06;99957.47;5401380;32;34812;-70
2023/06/17 13:02:59;;;;;;;;;;;;;;;27.23;32.53;99951.28;5402851;32;35137;-74
2023/06/17 13:06:01;;;;;;;;;;;;;;;26.44;33.82;99947.72;5407661;32;34460;-75
2023/06/17 13:09:03;;;;;;;;;;;;;;;26.32;34.56;99955.31;5388418;32;34842;-68
2023/06/17 13:12:06;;;;;;;;;;;;;;;27.30;33.39;99948.69;5394086;32;34976;-69
2023/06/17 13:15:08;;;;;;;;;;;;;;;27.62;31.98;99956.56;5403119;32;35018;-74
2023/06/17 13:18:10;;;;;;;;;;;;;;;26.86;32.79;99957.38;5405303;32;34943;-75
2023/06/17 13:21:12;;;;;;;;;;;;;;;27.76;31.24;99949.59;5404148;32;34564;-69
2023/06/17 13:24:14;;;;;;;;;;;;;;;28.09;31.15;99952.00;5402634;32;35290;-69
2023/06/17 13:27:18;;;;;;;;;;;;;;;26.76;33.24;99945.94;5402066;32;35421;-73
2023/06/17 13:30:20;;;;;;;;;;;;;;;27.80;32.14;99953.59;5402993;32;34273;-73
2023/06/17 13:33:23;;;;;;;;;;;;;;;26.85;32.34;99943.00;5407116;32;35293;-70
2023/06/17 13:36:25;;;;;;;;;;;;;;;27.77;31.07;99943.16;5375786;32;35248;-70
2023/06/17 13:39:27;;;;;;;;;;;;;;;26.83;32.55;99942.34;5405615;32;34376;-68
2023/06/17 13:42:31;;;;;;;;;;;;;;;27.03;32.59;99952.72;5396770;32;34379;-69
2023/06/17 13:45:33;;;;;;;;;;;;;;;26.70;32.27;99947.47;5401431;32;34440;-69
2023/06/17 13:48:35;;;;;;;;;;;;;;;26.80;31.52;99947.28;5403147;32;34736;-68
2023/06/17 13:51:36;;;;;;;;;;;;;;;27.36;29.28;99953.38;5402205;32;34798;-68
2023/06/17 13:54:39;;;;;;;;;;;;;;;27.86;28.97;99950.16;5402383;32;35175;-69
2023/06/17 13:57:40;;;;;;;;;;;;;;;27.68;29.92;99946.91;5401891;32;35382;-75
2023/06/17 14:00:42;;;;;;;;;;;;;;;27.76;30.70;99949.59;5405219;32;34387;-74
2023/06/17 14:03:44;;;;;;;;;;;;;;;27.59;31.30;99945.31;5400293;32;34758;-68
2023/06/17 14:06:47;;;;;;;;;;;;;;;27.80;30.55;99940.94;5403099;32;34398;-68
2023/06/17 14:09:49;;;;;;;;;;;;;;;27.38;32.27;99943.28;5408480;32;34897;-68
2023/06/17 14:12:51;;;;;;;;;;;;;;;27.33;32.39;99943.81;5404393;32;35482;-67
2023/06/17 14:15:53;;;;;;;;;;;;;;;27.12;32.74;99938.22;5383029;32;34623;-76
2023/06/17 14:18:55;;;;;;;;;;;;;;;27.42;32.05;99948.09;5385040;32;34560;-75
2023/06/17 14:22:00;;;;;;;;;;;;;;;26.71;33.29;99943.75;5402160;32;34404;-68
2023/06/17 14:25:03;;;;;;;;;;;;;;;26.54;33.58;99948.37;5397704;32;35126;-68
2023/06/17 14:28:05;;;;;;;;;;;;;;;26.25;34.00;99946.22;5400884;32;34926;-68
2023/06/17 14:31:10;;;;;;;;;;;;;;;26.70;33.10;99942.91;5395227;32;35403;-75
2023/06/17 14:34:12;;;;;;;;;;;;;;;26.84;32.72;99944.03;5402449;32;34985;-75
2023/06/17 14:37:13;;;;;;;;;;;;;;;26.74;32.99;99954.22;5394612;32;34345;-75
2023/06/17 14:40:16;;;;;;;;;;;;;;;26.30;34.01;99946.56;5401849;32;34560;-75
2023/06/17 14:43:18;;;;;;;;;;;;;;;26.40;33.32;99947.22;5387117;32;34320;-67
2023/06/17 14:46:20;;;;;;;;;;;;;;;26.66;33.03;99933.53;5407118;32;34763;-76
2023/06/17 14:49:22;;;;;;;;;;;;;;;26.86;33.13;99933.94;5403195;32;35432;-76
2023/06/17 14:52:25;;;;;;;;;;;;;;;26.89;32.55;99935.44;5406879;32;34987;-75
2023/06/17 14:55:28;;;;;;;;;;;;;;;26.53;33.41;99927.81;5388555;32;35458;-76
2023/06/17 14:58:30;;;;;;;;;;;;;;;26.58;33.02;99919.22;5405157;32;35274;-69
2023/06/17 15:01:35;;;;;;;;;;;;;;;26.22;33.91;99919.66;5404233;32;34366;-76
2023/06/17 15:04:37;;;;;;;;;;;;;;;26.92;33.17;99916.19;5401643;32;34984;-69
2023/06/17 15:07:40;;;;;;;;;;;;;;;27.20;32.46;99921.97;5403783;32;35458;-75
2023/06/17 15:10:41;;;;;;;;;;;;;;;26.89;32.34;99922.78;5400833;32;35521;-69
2023/06/17 15:13:43;;;;;;;;;;;;;;;26.62;32.47;99925.94;5406258;32;35072;-77
2023/06/17 15:16:46;;;;;;;;;;;;;;;27.06;32.15;99920.88;5404954;32;35165;-70
2023/06/17 15:19:48;;;;;;;;;;;;;;;27.08;32.68;99926.09;5393073;32;35004;-77
2023/06/17 15:22:50;;;;;;;;;;;;;;;26.64;32.97;99927.44;5401849;32;34888;-68
2023/06/17 15:25:52;;;;;;;;;;;;;;;26.27;33.91;99922.63;5371848;32;881788;-75
2023/06/17 15:28:54;;;;;;;;;;;;;;;26.40;33.51;99930.22;5406902;32;34354;-68
2023/06/17 15:31:55;;;;;;;;;;;;;;;26.50;33.54;99940.81;5405086;32;34462;-68
2023/06/17 15:34:58;;;;;;;;;;;;;;;26.13;33.97;99934.13;5406209;32;35325;-74
2023/06/17 15:37:59;;;;;;;;;;;;;;;25.94;34.34;99932.63;5394285;32;35023;-68
2023/06/17 15:41:02;;;;;;;;;;;;;;;25.82;34.32;99934.81;5389480;32;35119;-67
2023/06/17 15:44:04;;;;;;;;;;;;;;;26.49;33.45;99929.19;5387958;32;35184;-68
2023/06/17 15:47:06;;;;;;;;;;;;;;;26.17;32.85;99935.47;5390483;32;35027;-68